Latest Weather Observations for Devonport Airport

IDT60801

Issued at 7:35 am EST Wednesday 1 October 2014 (issued every 30 minutes, with the page automatically refreshed every 10 minutes)

About weather observations | Map of weather stations | Latest weather observations for TAS | Other Formats
Station Details ID: 091126 Name: DEVONPORT AIRPORT Lat: -41.17 Lon: 146.43 Height: 8.0 m
Data from the previous 72 hours. | See also: Recent months at Devonport Airport
Date/Time
EST
Temp
°C
App
Temp
°C
Dew
Point
Rel
Hum
%
Delta-T
°C
Wind Press
QNH
hPa
Press
MSL
hPa
Rain
since 9 am
mm
Dir
 
Spd
km/h
Gust
km/h
Spd
kts
Gust
kts
01/07:30am 8.9 3.3 3.3 68 2.4 WSW 22 30 12 16 1015.1 1015.2 4.8
01/07:00am 7.6 3.3 3.3 74 1.8 WSW 15 24 8 13 1014.9 1015.0 4.8
01/06:30am 6.0 1.2 2.8 80 1.3 W 17 24 9 13 1014.0 1014.1 4.8
01/06:00am 5.0 0.4 1.3 77 1.5 WSW 15 17 8 9 1013.5 1013.6 4.8
01/05:30am 6.6 1.1 1.7 71 2.0 SW 20 30 11 16 1012.8 1012.9 4.8
01/05:00am 6.4 1.5 1.9 73 1.8 SW 17 26 9 14 1012.2 1012.3 4.8
01/04:30am 5.1 2.2 1.4 77 1.5 WSW 6 7 3 4 1011.8 1011.9 4.8
01/04:00am 6.0 1.2 2.6 79 1.4 WSW 17 24 9 13 1011.2 1011.3 4.8
01/03:30am 5.1 0.1 1.6 78 1.4 WSW 17 26 9 14 1010.8 1010.9 4.8
01/03:00am 5.2 1.1 2.2 81 1.2 WSW 13 17 7 9 1010.3 1010.4 4.8
01/02:30am 4.4 0.5 1.3 80 1.2 W 11 15 6 8 1009.8 1009.9 4.8
01/02:00am 5.3 1.9 2.0 79 1.3 WSW 9 15 5 8 1009.5 1009.6 4.8
01/01:30am 5.7 0.8 2.0 77 1.5 W 17 20 9 11 1009.1 1009.2 4.8
01/01:00am 6.3 1.1 2.4 76 1.6 W 19 22 10 12 1008.6 1008.6 4.8
01/12:30am 7.0 1.7 2.1 71 2.0 SW 19 26 10 14 1008.3 1008.3 4.8
01/12:00am 7.6 1.5 2.7 71 2.1 SW 24 37 13 20 1008.1 1008.1 4.8
 
Date/Time
EST
Temp
°C
App
Temp
°C
Dew
Point
Rel
Hum
%
Delta-T
°C
Wind Press
QNH
hPa
Press
MSL
hPa
Rain
since 9 am
mm
Dir
 
Spd
km/h
Gust
km/h
Spd
kts
Gust
kts
30/11:30pm 6.3 1.8 2.0 74 1.7 WSW 15 17 8 9 1007.3 1007.3 4.8
30/11:00pm 7.0 2.6 2.5 73 1.9 W 15 20 8 11 1006.4 1006.4 4.8
30/10:30pm 7.8 3.5 3.3 73 1.9 W 15 20 8 11 1005.9 1005.9 4.8
30/10:00pm 7.7 2.6 3.2 73 1.9 W 19 28 10 15 1005.8 1005.8 4.8
30/09:30pm 7.0 2.3 3.3 77 1.6 W 17 20 9 11 1005.2 1005.2 4.8
30/09:00pm 7.1 2.0 3.0 75 1.7 W 19 22 10 12 1004.5 1004.5 4.8
30/08:30pm 7.8 2.4 2.7 70 2.1 WSW 20 28 11 15 1004.3 1004.3 4.8
30/08:00pm 8.0 2.3 3.1 71 2.1 WSW 22 32 12 17 1003.8 1003.8 4.8
30/07:30pm 7.7 1.3 3.2 73 1.9 W 26 35 14 19 1003.1 1003.1 4.8
30/07:00pm 8.3 1.2 3.6 72 2.0 W 30 37 16 20 1001.5 1001.5 4.8
30/06:30pm 9.2 1.7 4.6 73 2.0 W 33 46 18 25 1000.5 1000.5 4.8
30/06:00pm 9.9 3.1 5.3 73 2.1 W 30 39 16 21 999.6 999.6 4.8
30/05:30pm 10.2 3.8 5.4 72 2.2 WSW 28 39 15 21 998.6 998.6 4.8
30/05:17pm 10.4 5.3 6.2 75 2.0 SW 22 26 12 14 998.6 998.6 4.8
30/05:09pm 10.3 2.5 6.6 78 1.7 W 37 61 20 33 999.1 999.1 4.8
30/05:00pm 11.0 3.4 7.5 79 1.7 W 37 48 20 26 998.7 998.7 4.8
30/04:30pm 11.6 5.2 9.3 86 1.2 WNW 33 44 18 24 997.9 997.9 4.8
30/04:00pm 11.8 6.3 10.4 91 0.7 WNW 30 37 16 20 996.6 996.6 4.8
30/03:48pm 11.5 5.5 10.2 92 0.7 WNW 32 39 17 21 996.6 996.6 4.8
30/03:30pm 11.4 4.0 10.0 91 0.7 NW 39 54 21 29 996.3 996.3 4.6
30/03:14pm 12.0 3.9 10.2 89 0.9 NW 43 52 23 28 996.7 996.7 3.4
30/03:00pm 12.3 5.1 10.5 89 0.9 NW 39 50 21 27 996.3 996.3 3.0
30/02:30pm 12.7 5.7 11.1 90 0.8 NW 39 46 21 25 996.3 996.3 3.0
30/02:00pm 11.9 5.1 10.5 91 0.7 NW 37 50 20 27 996.5 996.5 3.0
30/01:55pm 11.9 4.3 10.5 91 0.7 NW 41 54 22 29 996.5 996.5 3.0
30/01:35pm 11.8 3.2 10.4 91 0.7 NW 46 61 25 33 997.1 997.1 2.6
30/01:30pm 11.8 2.4 10.2 90 0.8 NW 50 65 27 35 997.3 997.3 2.2
30/01:23pm 12.0 3.4 10.4 90 0.8 WNW 46 65 25 35 997.3 997.3 1.8
30/01:22pm 12.2 4.1 10.6 90 0.8 WNW 44 63 24 34 997.4 997.4 1.6
30/01:15pm 13.0 6.0 11.1 88 1.0 WNW 39 50 21 27 997.7 997.7 1.0
30/01:00pm 13.4 4.8 11.5 88 1.0 NNW 48 63 26 34 997.2 997.2 0.4
30/12:48pm 13.5 4.8 11.2 86 1.2 NNW 48 57 26 31 997.4 997.4 0.2
30/12:30pm 13.9 5.9 11.2 84 1.4 NNW 44 57 24 31 997.9 997.9 0.0
30/12:05pm 13.7 5.3 11.2 85 1.3 NNW 46 65 25 35 998.4 998.4 0.0
30/12:00pm 13.7 5.0 11.2 85 1.3 NNW 48 65 26 35 998.6 998.6 0.0
30/11:48am 13.8 4.8 11.5 86 1.2 NNW 50 61 27 33 998.7 998.7 0.0
30/11:30am 13.3 4.2 11.2 87 1.1 NNW 50 65 27 35 999.0 999.0 0.0
30/11:00am 14.1 5.0 11.1 82 1.6 NNW 50 63 27 34 999.7 999.7 0.0
30/10:30am 13.9 6.5 11.1 83 1.5 NNW 41 52 22 28 1000.4 1000.4 0.0
30/10:00am 14.1 7.9 11.3 83 1.5 NNW 35 46 19 25 1001.1 1001.1 0.0
30/09:30am 13.6 6.1 10.9 84 1.4 NNW 41 52 22 28 1001.9 1001.9 0.0
30/09:03am 13.2 7.0 11.4 89 1.0 NNW 35 48 19 26 1002.4 1002.4 0.0
30/09:00am 13.2 7.4 11.4 89 1.0 NNW 33 48 18 26 1002.6 1002.6 0.2
30/08:49am 13.0 7.3 11.1 88 1.0 NNW 32 43 17 23 1002.9 1002.9 0.2
30/08:30am 13.4 7.7 11.1 86 1.2 NNW 32 39 17 21 1003.2 1003.2 0.0
30/08:00am 13.7 6.5 10.5 81 1.7 NNW 39 48 21 26 1003.6 1003.6 0.0
30/07:30am 13.6 6.1 10.8 83 1.5 NNW 41 54 22 29 1003.7 1003.7 0.0
30/07:00am 13.3 7.1 11.5 89 1.0 N 35 44 19 24 1004.3 1004.3 0.0
30/06:30am 13.2 6.5 11.1 87 1.1 NNW 37 48 20 26 1004.5 1004.5 0.0
30/06:00am 13.0 7.2 10.9 87 1.1 NNW 32 39 17 21 1004.7 1004.7 0.0
30/05:30am 12.9 7.1 10.8 87 1.1 N 32 39 17 21 1004.7 1004.7 0.0
30/05:00am 12.9 7.5 11.0 88 1.0 N 30 37 16 20 1004.9 1004.9 0.0
30/04:30am 12.7 7.7 10.9 89 0.9 N 28 35 15 19 1005.2 1005.2 0.0
30/04:00am 12.7 7.7 11.1 90 0.8 N 28 35 15 19 1005.6 1005.6 0.0
30/03:30am 12.8 8.2 11.2 90 0.8 N 26 33 14 18 1006.2 1006.2 0.0
30/03:00am 12.9 8.7 11.1 89 0.9 N 24 30 13 16 1006.6 1006.6 0.0
30/02:30am 12.8 8.2 11.0 89 0.9 N 26 32 14 17 1007.0 1007.0 0.0
30/02:00am 12.9 8.3 11.0 88 1.0 NNW 26 32 14 17 1007.5 1007.5 0.0
30/01:30am 13.1 8.5 11.2 88 1.0 NNW 26 32 14 17 1008.1 1008.1 0.0
30/01:00am 13.2 8.3 11.3 88 1.0 NNW 28 35 15 19 1008.3 1008.3 0.0
30/12:30am 13.2 8.3 11.3 88 1.0 NNW 28 32 15 17 1008.7 1008.7 0.0
30/12:00am 13.1 9.3 11.0 87 1.1 NNW 22 30 12 16 1009.0 1009.0 0.0
 
Date/Time
EST
Temp
°C
App
Temp
°C
Dew
Point
Rel
Hum
%
Delta-T
°C
Wind Press
QNH
hPa
Press
MSL
hPa
Rain
since 9 am
mm
Dir
 
Spd
km/h
Gust
km/h
Spd
kts
Gust
kts
29/11:30pm 13.2 9.0 11.1 87 1.1 NNW 24 32 13 17 1009.2 1009.3 0.0
29/11:00pm 13.0 8.7 10.9 87 1.1 NNW 24 30 13 16 1009.3 1009.4 0.0
29/10:30pm 12.6 8.6 10.5 87 1.1 NW 22 26 12 14 1009.3 1009.4 0.0
29/10:00pm 12.6 8.0 9.8 83 1.4 NW 24 28 13 15 1009.1 1009.2 0.0
29/09:30pm 12.6 8.7 9.6 82 1.5 NW 20 26 11 14 1009.1 1009.2 0.0
29/09:00pm 12.5 8.6 9.3 81 1.6 NW 20 24 11 13 1009.1 1009.2 0.0
29/08:30pm 12.8 8.7 8.7 76 2.0 NNW 20 26 11 14 1009.2 1009.3 0.0
29/08:00pm 13.1 8.7 7.5 69 2.7 WNW 20 28 11 15 1009.1 1009.2 0.0
29/07:30pm 13.2 6.6 7.6 69 2.7 W 32 41 17 22 1008.8 1008.8 0.0
29/07:06pm 13.1 6.8 8.8 75 2.2 W 32 50 17 27 1008.6 1008.6 0.0
29/07:00pm 12.9 7.4 9.0 77 2.0 W 28 37 15 20 1008.6 1008.6 0.0
29/06:30pm 13.5 6.7 9.4 76 2.1 NW 35 44 19 24 1009.0 1009.0 0.0
29/06:00pm 13.5 5.5 9.0 74 2.3 NW 41 50 22 27 1008.6 1008.6 0.0
29/05:30pm 13.6 5.5 8.7 72 2.5 NW 41 52 22 28 1008.3 1008.3 0.0
29/05:00pm 13.9 6.8 9.5 75 2.3 NW 37 54 20 29 1008.3 1008.3 0.0
29/04:30pm 14.0 7.7 9.6 75 2.3 NW 33 43 18 23 1008.2 1008.2 0.0
29/04:00pm 14.0 6.8 9.0 72 2.5 NW 37 48 20 26 1007.9 1007.9 0.0
29/03:30pm 14.4 6.3 8.6 68 2.9 NW 41 52 22 28 1008.1 1008.1 0.0
29/03:00pm 14.7 6.4 9.3 70 2.8 NW 43 54 23 29 1008.3 1008.3 0.0
29/02:30pm 14.7 6.7 9.1 69 2.9 NW 41 50 22 27 1008.3 1008.3 0.0
29/02:00pm 14.8 6.6 9.6 71 2.7 NW 43 54 23 29 1008.5 1008.5 0.0
29/01:30pm 14.8 6.6 9.8 72 2.6 NW 43 52 23 28 1008.5 1008.5 0.0
29/01:00pm 14.9 7.4 9.5 70 2.8 NW 39 50 21 27 1008.5 1008.5 0.0
29/12:30pm 15.0 7.3 8.7 66 3.2 NW 39 50 21 27 1008.4 1008.4 0.0
29/12:00pm 15.1 7.9 9.2 68 3.0 NW 37 48 20 26 1008.6 1008.6 0.0
29/11:30am 15.0 8.7 9.8 71 2.7 NW 33 44 18 24 1008.4 1008.4 0.0
29/11:00am 14.5 7.8 8.2 66 3.2 NW 33 41 18 22 1008.6 1008.6 0.0
29/10:30am 14.5 7.9 8.7 68 2.9 NW 33 41 18 22 1008.6 1008.6 0.0
29/10:00am 14.1 7.5 8.5 69 2.8 NW 33 41 18 22 1008.7 1008.7 0.0
29/09:30am 13.9 7.3 8.7 71 2.6 NW 33 43 18 23 1008.7 1008.7 0.0
29/09:00am 13.7 7.8 7.7 67 3.0 NW 28 35 15 19 1008.2 1008.2 0.2
29/08:30am 13.2 7.8 7.9 70 2.6 WNW 26 32 14 17 1007.8 1007.8 0.2
29/08:00am 12.5 6.6 7.6 72 2.4 WNW 28 33 15 18 1007.7 1007.7 0.2
29/07:30am 12.1 6.3 7.8 75 2.1 WNW 28 35 15 19 1007.3 1007.3 0.2
29/07:00am 11.8 5.6 7.7 76 2.0 WNW 30 35 16 19 1006.6 1006.6 0.2
29/06:30am 11.5 6.1 7.8 78 1.8 WNW 26 33 14 18 1006.1 1006.1 0.2
29/06:00am 11.0 6.9 7.9 81 1.5 WNW 19 28 10 15 1005.7 1005.7 0.2
29/05:30am 9.8 5.7 6.0 77 1.8 W 17 20 9 11 1004.8 1004.8 0.2
29/05:00am 10.9 5.1 6.1 72 2.2 W 26 39 14 21 1004.3 1004.3 0.2
29/04:30am 12.0 5.3 7.3 73 2.3 W 32 41 17 22 1003.4 1003.4 0.2
29/04:00am 12.9 4.5 9.5 80 1.7 WNW 44 59 24 32 1002.7 1002.7 0.2
29/03:31am 13.0 3.0 10.9 87 1.1 NW 54 72 29 39 1001.5 1001.5 0.2
29/03:30am 13.0 2.7 10.9 87 1.1 NW 56 72 30 39 1001.5 1001.5 0.2
29/03:16am 13.1 5.1 11.0 87 1.1 NNW 44 67 24 36 1000.9 1000.9 0.2
29/03:00am 13.2 5.7 10.9 86 1.2 NNW 41 50 22 27 1001.3 1001.3 0.2
29/02:44am 13.3 6.2 11.0 86 1.2 NW 39 50 21 27 1001.5 1001.5 0.2
29/02:30am 13.2 6.9 11.1 87 1.1 NW 35 46 19 25 1001.7 1001.7 0.2
29/02:04am 13.1 6.8 11.2 88 1.0 NW 35 46 19 25 1002.0 1002.0 0.2
29/02:00am 13.1 7.2 11.2 88 1.0 NW 33 44 18 24 1002.0 1002.0 0.2
29/01:30am 13.0 6.6 10.7 86 1.2 WNW 35 46 19 25 1002.5 1002.5 0.2
29/01:00am 13.0 6.7 11.2 89 1.0 WNW 35 44 19 24 1002.7 1002.7 0.2
29/12:30am 12.9 7.3 11.5 91 0.7 NW 32 41 17 22 1002.6 1002.6 0.2
29/12:00am 13.1 7.2 11.3 89 1.0 NW 33 43 18 23 1002.2 1002.2 0.2
 
Date/Time
EST
Temp
°C
App
Temp
°C
Dew
Point
Rel
Hum
%
Delta-T
°C
Wind Press
QNH
hPa
Press
MSL
hPa
Rain
since 9 am
mm
Dir
 
Spd
km/h
Gust
km/h
Spd
kts
Gust
kts
28/11:30pm 13.6 7.4 11.3 86 1.2 NW 35 44 19 24 1002.0 1002.0 0.2
28/11:00pm 13.5 7.8 11.7 89 1.0 NW 33 41 18 22 1002.2 1002.2 0.2
28/10:30pm 13.7 10.2 12.3 91 0.8 NW 22 32 12 17 1002.0 1002.0 0.2
28/10:19pm 13.7 10.8 12.3 91 0.8 NW 19 26 10 14 1001.7 1001.7 0.2
28/10:00pm 13.8 10.9 12.2 90 0.9 WNW 19 24 10 13 1001.9 1001.9 0.2
28/09:57pm 13.8 10.9 12.2 90 0.9 WNW 19 24 10 13 1001.8 1001.8 0.2
28/09:36pm 14.1 11.0 12.3 89 1.0 NW 20 28 11 15 1001.9 1001.9 0.2
28/09:30pm 14.1 11.0 12.3 89 1.0 NW 20 26 11 14 1002.0 1002.0 0.2
28/09:17pm 14.2 12.5 12.4 89 1.0 WNW 13 24 7 13 1001.8 1001.8 0.2
28/09:00pm 13.9 13.4 11.9 88 1.1 WNW 6 9 3 5 1001.8 1001.8 0.0
28/08:30pm 14.1 13.0 12.1 88 1.1 NW 9 15 5 8 1001.6 1001.6 0.0
28/08:00pm 14.3 12.2 12.3 88 1.1 NNW 15 19 8 10 1001.6 1001.6 0.0
28/07:30pm 14.2 12.0 12.1 87 1.1 N 15 20 8 11 1001.7 1001.7 0.0
28/07:00pm 14.6 12.7 11.7 83 1.6 NNW 13 17 7 9 1001.4 1001.4 0.0
28/06:30pm 14.9 13.6 11.3 79 1.9 NNW 9 15 5 8 1001.9 1001.9 0.0
28/06:00pm 16.1 13.0 11.5 74 2.5 NW 19 24 10 13 1001.4 1001.4 0.0
28/05:30pm 17.9 13.1 11.7 67 3.4 WNW 28 46 15 25 1001.3 1001.3 0.0
28/05:29pm 17.6 12.8 11.6 68 3.3 WNW 28 46 15 25 1001.2 1001.2 0.0
28/05:00pm 17.4 14.2 11.2 67 3.4 WNW 19 22 10 12 1001.1 1001.1 0.0
28/04:34pm 18.3 13.3 11.1 63 3.9 NNW 28 56 15 30 1001.2 1001.2 0.0
28/04:30pm 17.8 14.7 11.6 67 3.4 NNW 19 54 10 29 1001.3 1001.3 0.0
28/04:00pm 16.4 15.3 11.8 74 2.5 N 9 15 5 8 1001.9 1001.9 0.0
28/03:30pm 15.9 12.6 11.7 76 2.3 ENE 20 26 11 14 1001.9 1001.9 0.0
28/03:28pm 16.1 12.8 11.7 75 2.4 ENE 20 22 11 12 1001.9 1001.9 0.0
28/03:00pm 16.4 15.2 11.6 73 2.6 WSW 9 9 5 5 1003.9 1003.9 0.0
28/02:30pm 17.3 13.9 11.3 68 3.2 WNW 20 28 11 15 1004.3 1004.3 0.0
28/02:00pm 17.6 12.7 11.4 67 3.4 NNW 28 46 15 25 1004.1 1004.1 0.0
28/01:58pm 17.7 12.8 11.3 66 3.5 NNW 28 46 15 25 1004.3 1004.3 0.0
28/01:52pm 18.1 11.8 11.2 64 3.7 NW 35 46 19 25 1004.6 1004.6 0.0
28/01:30pm 17.4 16.1 11.2 67 3.4 NW 9 17 5 9 1004.5 1004.5 0.0
28/01:00pm 17.8 15.8 11.6 67 3.4 NW 13 24 7 13 1005.6 1005.6 0.0
28/12:30pm 16.7 14.8 11.8 73 2.7 NNE 13 17 7 9 1006.2 1006.2 0.0
28/12:00pm 15.5 12.5 12.1 80 1.9 NE 19 24 10 13 1007.3 1007.3 0.0
28/11:30am 15.7 12.6 12.3 80 1.9 NE 20 24 11 13 1007.8 1007.8 0.0
28/11:00am 17.1 14.0 12.2 73 2.7 NE 20 26 11 14 1008.2 1008.2 0.0
28/10:30am 16.5 11.6 12.7 78 2.1 NE 30 35 16 19 1007.4 1007.4 0.0
28/10:00am 16.6 11.9 13.1 80 2.0 NE 30 39 16 21 1007.8 1007.8 0.0
28/09:30am 16.4 11.1 12.6 78 2.1 ENE 32 39 17 21 1008.6 1008.6 0.0
28/09:00am 15.4 11.0 12.9 85 1.4 ENE 28 33 15 18 1009.2 1009.3 0.0
28/08:30am 14.6 11.6 12.6 88 1.1 ENE 20 30 11 16 1009.4 1009.5 0.0
28/08:00am 13.3 12.2 11.9 91 0.8 SE 9 13 5 7 1010.0 1010.1 0.0

Other Formats:

Comma delimited format used in spreadsheet applications
http://www.bom.gov.au/fwo/IDT60801/IDT60801.95960.axf

JavaScript Object Notation format (JSON) in row-major order
http://www.bom.gov.au/fwo/IDT60801/IDT60801.95960.json